BAW105 KJFK-EGLL
Flight info
| Callsign | BAW105 |
|---|---|
| Flight time | N/A |
| Altitude | 35000 |
| Route | HAPIE DCT YAHOO DCT WHALE DCT NANSO N45D RAFIN DCT |
| Aircraft | B744/H-VGD/A |
Departure
| Time | 2026-05-05 09:10 |
|---|---|
| Airport | John F. Kennedy International Airport (KJFK) |
Arrival
| Time | N/A |
|---|---|
| Airport | London Heathrow Airport (EGLL) |
| Time | Latitude | Longitude | Altitude | Speed | Heading |
|---|---|---|---|---|---|
| 2026-05-05 08:44 | 40.65052 | -73.78157 | 26 ft | 0 kts | 265° |
| 2026-05-05 08:59 | 40.65053 | -73.78147 | 26 ft | 1 kts | 267° |
| 2026-05-05 08:59 | 40.65053 | -73.78126 | 26 ft | 2 kts | 274° |
| 2026-05-05 08:59 | 40.65052 | -73.78105 | 26 ft | 2 kts | 284° |
| 2026-05-05 09:00 | 40.65047 | -73.78087 | 26 ft | 2 kts | 299° |
| 2026-05-05 09:00 | 40.65041 | -73.78071 | 26 ft | 2 kts | 320° |
| 2026-05-05 09:00 | 40.65032 | -73.78062 | 26 ft | 2 kts | 347° |
| 2026-05-05 09:00 | 40.65020 | -73.78060 | 26 ft | 1 kts | 10° |
| 2026-05-05 09:01 | 40.65006 | -73.78063 | 26 ft | 1 kts | 10° |
| 2026-05-05 09:01 | 40.64994 | -73.78066 | 26 ft | 0 kts | 10° |
| 2026-05-05 09:04 | 40.64995 | -73.78066 | 26 ft | 0 kts | 10° |
| 2026-05-05 09:05 | 40.65008 | -73.78063 | 26 ft | 4 kts | 10° |
| 2026-05-05 09:06 | 40.65047 | -73.78053 | 26 ft | 8 kts | 15° |
| 2026-05-05 09:06 | 40.65105 | -73.78014 | 26 ft | 11 kts | 31° |
| 2026-05-05 09:06 | 40.65172 | -73.77984 | 26 ft | 9 kts | 330° |
| 2026-05-05 09:06 | 40.65212 | -73.78062 | 26 ft | 12 kts | 301° |
| 2026-05-05 09:07 | 40.65263 | -73.78173 | 26 ft | 16 kts | 301° |
| 2026-05-05 09:07 | 40.65323 | -73.78307 | 26 ft | 15 kts | 297° |
| 2026-05-05 09:07 | 40.65358 | -73.78452 | 26 ft | 18 kts | 294° |
| 2026-05-05 09:07 | 40.65443 | -73.78580 | 26 ft | 16 kts | 308° |
| 2026-05-05 09:08 | 40.65500 | -73.78697 | 26 ft | 15 kts | 303° |
| 2026-05-05 09:08 | 40.65556 | -73.78748 | 26 ft | 8 kts | 29° |
| 2026-05-05 09:08 | 40.65604 | -73.78702 | 26 ft | 9 kts | 49° |
| 2026-05-05 09:08 | 40.65600 | -73.78635 | 26 ft | 9 kts | 121° |
| 2026-05-05 09:09 | 40.65564 | -73.78552 | 26 ft | 12 kts | 116° |
| 2026-05-05 09:09 | 40.65447 | -73.78295 | 26 ft | 65 kts | 121° |
| 2026-05-05 09:09 | 40.65099 | -73.77526 | 27 ft | 130 kts | 121° |
| 2026-05-05 09:09 | 40.64534 | -73.76285 | 94 ft | 176 kts | 121° |
| 2026-05-05 09:10 | 40.63885 | -73.74829 | 554 ft | 190 kts | 119° |
| 2026-05-05 09:10 | 40.63297 | -73.73256 | 1247 ft | 193 kts | 119° |
| 2026-05-05 09:10 | 40.62725 | -73.71605 | 1873 ft | 204 kts | 119° |
| 2026-05-05 09:10 | 40.62123 | -73.69782 | 2132 ft | 229 kts | 118° |
| 2026-05-05 09:11 | 40.61471 | -73.67773 | 2347 ft | 256 kts | 118° |
| 2026-05-05 09:11 | 40.60740 | -73.65515 | 2747 ft | 276 kts | 118° |
| 2026-05-05 09:11 | 40.59984 | -73.63187 | 3758 ft | 275 kts | 118° |
| 2026-05-05 09:11 | 40.59230 | -73.60863 | 4596 ft | 279 kts | 118° |
| 2026-05-05 09:12 | 40.58464 | -73.58505 | 5483 ft | 279 kts | 117° |
| 2026-05-05 09:12 | 40.57694 | -73.56137 | 6227 ft | 285 kts | 116° |
| 2026-05-05 09:12 | 40.56906 | -73.53718 | 6940 ft | 292 kts | 116° |
| 2026-05-05 09:12 | 40.56097 | -73.51235 | 7640 ft | 298 kts | 116° |
| 2026-05-05 09:13 | 40.55266 | -73.48688 | 8337 ft | 305 kts | 116° |
| 2026-05-05 09:13 | 40.54423 | -73.46103 | 9021 ft | 311 kts | 115° |
| 2026-05-05 09:13 | 40.53562 | -73.43468 | 9716 ft | 317 kts | 115° |
| 2026-05-05 09:13 | 40.52684 | -73.40783 | 10366 ft | 324 kts | 115° |
| 2026-05-05 09:14 | 40.51775 | -73.38005 | 10675 ft | 345 kts | 115° |
| 2026-05-05 09:14 | 40.50813 | -73.35002 | 10854 ft | 371 kts | 114° |
| 2026-05-05 09:14 | 40.49768 | -73.31762 | 11027 ft | 396 kts | 114° |
| 2026-05-05 09:14 | 40.48642 | -73.28315 | 11203 ft | 421 kts | 114° |
| 2026-05-05 09:15 | 40.47453 | -73.24705 | 11499 ft | 440 kts | 114° |
| 2026-05-05 09:15 | 40.46222 | -73.20982 | 12199 ft | 449 kts | 114° |
| 2026-05-05 09:15 | 40.44965 | -73.17187 | 12975 ft | 455 kts | 114° |
| 2026-05-05 09:15 | 40.43696 | -73.13360 | 13752 ft | 461 kts | 114° |
| 2026-05-05 09:16 | 40.42405 | -73.09468 | 14495 ft | 468 kts | 114° |
| 2026-05-05 09:16 | 40.41101 | -73.05540 | 15290 ft | 473 kts | 114° |
| 2026-05-05 09:16 | 40.40023 | -73.01422 | 15999 ft | 480 kts | 102° |
| 2026-05-05 09:16 | 40.39789 | -72.97053 | 16761 ft | 483 kts | 87° |
| 2026-05-05 09:17 | 40.40179 | -72.92667 | 17499 ft | 486 kts | 79° |
| 2026-05-05 09:17 | 40.40877 | -72.88322 | 18145 ft | 492 kts | 75° |
| 2026-05-05 09:17 | 40.41780 | -72.83944 | 18872 ft | 495 kts | 72° |
| 2026-05-05 09:17 | 40.42774 | -72.79614 | 19571 ft | 498 kts | 71° |
| 2026-05-05 09:18 | 40.43794 | -72.75238 | 20239 ft | 502 kts | 71° |
| 2026-05-05 09:18 | 40.44792 | -72.70871 | 20887 ft | 506 kts | 71° |
| 2026-05-05 09:18 | 40.45806 | -72.66370 | 21520 ft | 510 kts | 71° |
| 2026-05-05 09:18 | 40.46807 | -72.61881 | 22130 ft | 514 kts | 71° |
| 2026-05-05 09:19 | 40.47802 | -72.57397 | 22738 ft | 517 kts | 71° |
| 2026-05-05 09:19 | 40.48818 | -72.52855 | 23295 ft | 520 kts | 71° |
| 2026-05-05 09:19 | 40.49864 | -72.48298 | 23816 ft | 524 kts | 71° |
| 2026-05-05 09:19 | 40.50914 | -72.43662 | 24377 ft | 526 kts | 71° |
| 2026-05-05 09:20 | 40.51951 | -72.39031 | 24831 ft | 530 kts | 71° |
| 2026-05-05 09:20 | 40.52981 | -72.34397 | 25265 ft | 534 kts | 71° |
| 2026-05-05 09:20 | 40.54012 | -72.29734 | 25804 ft | 534 kts | 71° |
| 2026-05-05 09:20 | 40.55055 | -72.25003 | 26583 ft | 529 kts | 71° |
| 2026-05-05 09:21 | 40.56056 | -72.20443 | 27265 ft | 527 kts | 71° |
| 2026-05-05 09:21 | 40.57071 | -72.15806 | 27921 ft | 525 kts | 70° |
| 2026-05-05 09:21 | 40.58048 | -72.11335 | 28553 ft | 522 kts | 70° |
| 2026-05-05 09:21 | 40.59078 | -72.06611 | 29188 ft | 520 kts | 70° |
| 2026-05-05 09:22 | 40.60073 | -72.02034 | 29779 ft | 519 kts | 70° |
| 2026-05-05 09:22 | 40.61056 | -71.97504 | 30374 ft | 515 kts | 69° |
| 2026-05-05 09:22 | 40.62037 | -71.92974 | 31045 ft | 511 kts | 69° |
| 2026-05-05 09:22 | 40.63012 | -71.88464 | 31414 ft | 513 kts | 69° |
| 2026-05-05 09:23 | 40.63985 | -71.83951 | 31827 ft | 513 kts | 69° |
| 2026-05-05 09:23 | 40.64958 | -71.79428 | 32287 ft | 512 kts | 69° |
| 2026-05-05 09:23 | 40.65922 | -71.74936 | 32704 ft | 511 kts | 69° |
| 2026-05-05 09:23 | 40.66889 | -71.70423 | 33122 ft | 510 kts | 69° |
| 2026-05-05 09:24 | 40.67848 | -71.65937 | 33522 ft | 509 kts | 69° |
| 2026-05-05 09:24 | 40.68807 | -71.61447 | 33855 ft | 510 kts | 69° |
| 2026-05-05 09:24 | 40.69765 | -71.56943 | 34196 ft | 509 kts | 69° |
| 2026-05-05 09:24 | 40.70724 | -71.52433 | 34474 ft | 511 kts | 70° |
| 2026-05-05 09:25 | 40.71680 | -71.47925 | 34706 ft | 513 kts | 70° |
| 2026-05-05 09:25 | 40.72626 | -71.43452 | 34948 ft | 513 kts | 70° |
| 2026-05-05 09:25 | 40.73584 | -71.38912 | 34956 ft | 513 kts | 70° |
| 2026-05-05 09:26 | 40.75495 | -71.29831 | 34964 ft | 514 kts | 70° |
| 2026-05-05 09:26 | 40.77404 | -71.20719 | 34963 ft | 514 kts | 70° |
| 2026-05-05 09:27 | 40.79299 | -71.11640 | 34965 ft | 514 kts | 70° |
| 2026-05-05 09:27 | 40.81195 | -71.02509 | 34966 ft | 515 kts | 71° |
| 2026-05-05 09:28 | 40.83069 | -70.93451 | 34967 ft | 515 kts | 71° |
| 2026-05-05 09:28 | 40.84953 | -70.84301 | 34969 ft | 515 kts | 71° |
| 2026-05-05 09:29 | 40.86826 | -70.75162 | 34971 ft | 515 kts | 71° |
| 2026-05-05 09:29 | 40.88693 | -70.66015 | 34974 ft | 516 kts | 71° |
| 2026-05-05 09:30 | 40.90560 | -70.56832 | 34987 ft | 516 kts | 72° |
| 2026-05-05 09:30 | 40.92395 | -70.47757 | 34989 ft | 514 kts | 73° |
| 2026-05-05 09:31 | 40.94249 | -70.38553 | 34991 ft | 515 kts | 73° |
| 2026-05-05 09:31 | 40.96071 | -70.29467 | 34992 ft | 515 kts | 73° |
| 2026-05-05 09:32 | 40.97904 | -70.20280 | 34994 ft | 515 kts | 73° |
| 2026-05-05 09:32 | 40.99757 | -70.11119 | 34996 ft | 514 kts | 73° |
| 2026-05-05 09:33 | 41.01576 | -70.01959 | 34998 ft | 514 kts | 73° |
| 2026-05-05 09:33 | 41.03357 | -69.92834 | 34999 ft | 515 kts | 73° |
| 2026-05-05 09:34 | 41.05155 | -69.83581 | 34999 ft | 516 kts | 73° |
| 2026-05-05 09:34 | 41.07170 | -69.74559 | 35005 ft | 513 kts | 65° |
| 2026-05-05 09:35 | 41.10384 | -69.66120 | 34997 ft | 511 kts | 58° |
| 2026-05-05 09:35 | 41.15697 | -69.53902 | 34996 ft | 509 kts | 57° |
| 2026-05-05 09:36 | 41.19193 | -69.45726 | 34995 ft | 509 kts | 57° |
| 2026-05-05 09:36 | 41.22670 | -69.37526 | 34993 ft | 509 kts | 58° |
| 2026-05-05 09:37 | 41.26179 | -69.29341 | 34993 ft | 510 kts | 57° |
| 2026-05-05 09:37 | 41.29667 | -69.21189 | 34993 ft | 510 kts | 57° |
| 2026-05-05 09:38 | 41.33146 | -69.12979 | 34992 ft | 510 kts | 57° |
| 2026-05-05 09:38 | 41.36615 | -69.04753 | 34992 ft | 509 kts | 58° |
| 2026-05-05 09:39 | 41.40076 | -68.96514 | 34992 ft | 509 kts | 58° |
| 2026-05-05 09:39 | 41.43511 | -68.88312 | 34991 ft | 509 kts | 58° |
| 2026-05-05 09:40 | 41.46958 | -68.80058 | 34991 ft | 509 kts | 58° |
| 2026-05-05 09:40 | 41.50404 | -68.71782 | 34989 ft | 509 kts | 58° |
| 2026-05-05 09:41 | 41.53837 | -68.63517 | 34989 ft | 509 kts | 58° |
| 2026-05-05 09:41 | 41.57269 | -68.55231 | 34988 ft | 509 kts | 58° |
| 2026-05-05 09:42 | 41.60667 | -68.47001 | 34986 ft | 509 kts | 58° |
| 2026-05-05 09:42 | 41.64084 | -68.38704 | 34986 ft | 509 kts | 58° |
| 2026-05-05 09:43 | 41.67500 | -68.30388 | 34991 ft | 509 kts | 58° |
| 2026-05-05 09:43 | 41.70327 | -68.23485 | 34992 ft | 509 kts | 58° |
| 2026-05-05 09:44 | 41.73726 | -68.15165 | 34977 ft | 509 kts | 58° |
| 2026-05-05 09:44 | 41.77120 | -68.06835 | 34976 ft | 509 kts | 58° |
| 2026-05-05 09:45 | 41.80505 | -67.98503 | 34975 ft | 509 kts | 58° |
| 2026-05-05 09:45 | 41.83886 | -67.90157 | 34976 ft | 509 kts | 58° |
| 2026-05-05 09:46 | 41.87259 | -67.81806 | 34975 ft | 509 kts | 58° |
| 2026-05-05 09:46 | 41.90608 | -67.73493 | 34974 ft | 509 kts | 58° |
| 2026-05-05 09:47 | 41.93987 | -67.65080 | 34975 ft | 509 kts | 58° |
| 2026-05-05 09:47 | 41.97323 | -67.56750 | 34956 ft | 509 kts | 58° |
| 2026-05-05 09:48 | 42.00669 | -67.48372 | 34956 ft | 509 kts | 57° |
| 2026-05-05 09:48 | 42.04008 | -67.39987 | 34955 ft | 508 kts | 57° |
| 2026-05-05 09:49 | 42.07350 | -67.31674 | 34955 ft | 507 kts | 57° |
| 2026-05-05 09:49 | 42.10689 | -67.23230 | 34954 ft | 507 kts | 57° |
| 2026-05-05 09:50 | 42.13973 | -67.14870 | 34953 ft | 507 kts | 57° |
| 2026-05-05 09:50 | 42.17288 | -67.06412 | 34952 ft | 507 kts | 57° |
| 2026-05-05 09:51 | 42.20400 | -66.97922 | 34953 ft | 509 kts | 63° |
| 2026-05-05 09:51 | 42.22861 | -66.88958 | 34952 ft | 512 kts | 67° |
| 2026-05-05 09:52 | 42.25169 | -66.79852 | 34951 ft | 513 kts | 67° |
| 2026-05-05 09:52 | 42.27511 | -66.70747 | 34951 ft | 512 kts | 66° |
| 2026-05-05 09:53 | 42.29850 | -66.61694 | 34951 ft | 511 kts | 66° |
| 2026-05-05 09:53 | 42.32224 | -66.52625 | 34951 ft | 510 kts | 66° |
| 2026-05-05 09:54 | 42.34596 | -66.43718 | 34951 ft | 510 kts | 66° |
| 2026-05-05 09:54 | 42.36977 | -66.34634 | 34951 ft | 510 kts | 66° |
| 2026-05-05 09:55 | 42.39337 | -66.25550 | 34951 ft | 510 kts | 66° |
| 2026-05-05 09:55 | 42.41678 | -66.16485 | 34952 ft | 510 kts | 66° |
| 2026-05-05 09:56 | 42.44002 | -66.07446 | 34951 ft | 510 kts | 67° |
| 2026-05-05 09:56 | 42.46329 | -65.98359 | 34957 ft | 511 kts | 66° |
| 2026-05-05 09:57 | 42.48672 | -65.89173 | 34958 ft | 520 kts | 66° |
| 2026-05-05 09:57 | 42.51027 | -65.79903 | 34958 ft | 520 kts | 66° |
| 2026-05-05 09:58 | 42.53377 | -65.70617 | 34958 ft | 519 kts | 66° |
| 2026-05-05 09:58 | 42.55712 | -65.61349 | 34957 ft | 520 kts | 66° |
| 2026-05-05 09:59 | 42.58044 | -65.52063 | 34958 ft | 520 kts | 66° |
| 2026-05-05 09:59 | 42.60353 | -65.42827 | 34957 ft | 519 kts | 66° |
| 2026-05-05 10:00 | 42.62667 | -65.33539 | 34957 ft | 519 kts | 67° |
| 2026-05-05 10:00 | 42.64912 | -65.24486 | 34956 ft | 519 kts | 67° |
| 2026-05-05 10:01 | 42.67216 | -65.15162 | 34956 ft | 520 kts | 67° |
| 2026-05-05 10:01 | 42.69509 | -65.05847 | 34955 ft | 519 kts | 67° |
| 2026-05-05 10:02 | 42.71787 | -64.96553 | 34955 ft | 519 kts | 67° |
| 2026-05-05 10:02 | 42.74065 | -64.87223 | 34936 ft | 519 kts | 67° |
| 2026-05-05 10:03 | 42.76325 | -64.77929 | 34925 ft | 519 kts | 67° |
| 2026-05-05 10:03 | 42.78585 | -64.68594 | 34922 ft | 520 kts | 67° |
| 2026-05-05 10:04 | 42.80850 | -64.59205 | 34917 ft | 521 kts | 67° |
| 2026-05-05 10:04 | 42.83105 | -64.49816 | 34914 ft | 521 kts | 68° |
| 2026-05-05 10:05 | 42.85349 | -64.40431 | 34910 ft | 521 kts | 68° |
| 2026-05-05 10:05 | 42.87588 | -64.31033 | 34907 ft | 521 kts | 68° |
| 2026-05-05 10:06 | 42.89820 | -64.21621 | 34904 ft | 521 kts | 68° |
| 2026-05-05 10:06 | 42.92032 | -64.12258 | 34901 ft | 521 kts | 68° |
| 2026-05-05 10:07 | 42.94248 | -64.02840 | 34896 ft | 521 kts | 68° |
| 2026-05-05 10:07 | 42.96465 | -63.93372 | 34869 ft | 524 kts | 68° |
| 2026-05-05 10:08 | 42.98681 | -63.83871 | 34868 ft | 525 kts | 68° |
| 2026-05-05 10:08 | 43.00879 | -63.74409 | 34866 ft | 525 kts | 68° |
| 2026-05-05 10:09 | 43.03081 | -63.64888 | 34865 ft | 525 kts | 68° |
| 2026-05-05 10:09 | 43.05274 | -63.55360 | 34864 ft | 525 kts | 68° |
| 2026-05-05 10:10 | 43.07459 | -63.45831 | 34839 ft | 525 kts | 68° |
| 2026-05-05 10:10 | 43.09638 | -63.36288 | 34840 ft | 525 kts | 68° |
| 2026-05-05 10:11 | 43.11797 | -63.26787 | 34838 ft | 526 kts | 68° |
| 2026-05-05 10:11 | 43.13961 | -63.17225 | 34848 ft | 526 kts | 69° |
| 2026-05-05 10:12 | 43.16115 | -63.07664 | 34850 ft | 525 kts | 69° |
| 2026-05-05 10:12 | 43.18260 | -62.98100 | 34852 ft | 526 kts | 69° |
| 2026-05-05 10:13 | 43.20406 | -62.88490 | 34850 ft | 526 kts | 69° |
| 2026-05-05 10:13 | 43.22529 | -62.78943 | 34852 ft | 526 kts | 69° |
| 2026-05-05 10:14 | 43.24657 | -62.69327 | 34904 ft | 527 kts | 69° |
| 2026-05-05 10:14 | 43.26791 | -62.59645 | 35009 ft | 531 kts | 69° |
| 2026-05-05 10:15 | 43.28923 | -62.49923 | 35026 ft | 532 kts | 69° |
| 2026-05-05 10:15 | 43.31045 | -62.40203 | 35029 ft | 531 kts | 70° |
| 2026-05-05 10:16 | 43.33161 | -62.30471 | 35032 ft | 531 kts | 70° |
| 2026-05-05 10:16 | 43.35258 | -62.20779 | 35034 ft | 532 kts | 70° |
| 2026-05-05 10:17 | 43.37355 | -62.11037 | 35037 ft | 532 kts | 70° |
| 2026-05-05 10:17 | 43.39450 | -62.01267 | 35040 ft | 532 kts | 70° |
| 2026-05-05 10:18 | 43.41541 | -61.91464 | 35044 ft | 535 kts | 70° |
| 2026-05-05 10:18 | 43.43612 | -61.81711 | 35046 ft | 535 kts | 70° |
| 2026-05-05 10:19 | 43.45711 | -61.71782 | 35050 ft | 536 kts | 70° |
| 2026-05-05 10:19 | 43.47782 | -61.61937 | 35054 ft | 536 kts | 70° |
| 2026-05-05 10:20 | 43.49836 | -61.52122 | 35058 ft | 537 kts | 70° |
| 2026-05-05 10:20 | 43.51895 | -61.42244 | 35062 ft | 538 kts | 71° |
| 2026-05-05 10:21 | 43.53952 | -61.32320 | 35059 ft | 538 kts | 71° |
| 2026-05-05 10:21 | 43.56002 | -61.22386 | 35061 ft | 539 kts | 71° |
| 2026-05-05 10:22 | 43.58049 | -61.12414 | 35065 ft | 540 kts | 71° |
| 2026-05-05 10:22 | 43.60090 | -61.02425 | 35068 ft | 541 kts | 72° |
| 2026-05-05 10:23 | 43.62126 | -60.92412 | 35071 ft | 542 kts | 72° |
| 2026-05-05 10:23 | 43.64144 | -60.82436 | 35074 ft | 543 kts | 72° |
| 2026-05-05 10:24 | 43.66171 | -60.72369 | 35078 ft | 544 kts | 72° |
| 2026-05-05 10:24 | 43.68191 | -60.62281 | 35079 ft | 545 kts | 73° |
| 2026-05-05 10:25 | 43.70205 | -60.52173 | 35083 ft | 546 kts | 73° |
| 2026-05-05 10:25 | 43.71874 | -60.43757 | 35084 ft | 547 kts | 73° |
| 2026-05-05 10:26 | 43.74220 | -60.31870 | 35086 ft | 547 kts | 73° |
| 2026-05-05 10:26 | 43.75870 | -60.23463 | 35087 ft | 548 kts | 73° |
| 2026-05-05 10:27 | 43.78189 | -60.11592 | 35089 ft | 548 kts | 73° |
| 2026-05-05 10:27 | 43.79847 | -60.03055 | 35090 ft | 548 kts | 73° |
| 2026-05-05 10:28 | 43.81806 | -59.92923 | 35090 ft | 548 kts | 73° |
| 2026-05-05 10:28 | 43.83768 | -59.82720 | 35089 ft | 549 kts | 73° |
| 2026-05-05 10:29 | 43.85730 | -59.72462 | 35089 ft | 549 kts | 74° |
| 2026-05-05 10:29 | 43.87685 | -59.62192 | 35089 ft | 550 kts | 74° |
| 2026-05-05 10:30 | 43.89615 | -59.51991 | 35088 ft | 551 kts | 74° |
| 2026-05-05 10:30 | 43.91555 | -59.41687 | 35087 ft | 552 kts | 75° |
| 2026-05-05 10:31 | 43.93487 | -59.31369 | 35079 ft | 554 kts | 75° |
| 2026-05-05 10:31 | 43.95420 | -59.20988 | 35076 ft | 556 kts | 75° |
| 2026-05-05 10:32 | 43.97353 | -59.10549 | 35072 ft | 559 kts | 75° |
| 2026-05-05 10:32 | 43.99273 | -59.00126 | 35067 ft | 560 kts | 76° |
| 2026-05-05 10:33 | 44.01201 | -58.89595 | 35063 ft | 564 kts | 76° |
| 2026-05-05 10:33 | 44.03132 | -58.78989 | 35058 ft | 566 kts | 76° |
| 2026-05-05 10:34 | 44.05057 | -58.68357 | 35053 ft | 567 kts | 76° |
| 2026-05-05 10:34 | 44.06963 | -58.57767 | 35048 ft | 568 kts | 77° |
| 2026-05-05 10:35 | 44.08870 | -58.47110 | 35042 ft | 569 kts | 77° |
| 2026-05-05 10:35 | 44.10776 | -58.36396 | 35037 ft | 570 kts | 77° |
| 2026-05-05 10:36 | 44.12673 | -58.25671 | 35031 ft | 570 kts | 77° |
| 2026-05-05 10:36 | 44.14559 | -58.14940 | 35026 ft | 571 kts | 77° |
| 2026-05-05 10:37 | 44.16436 | -58.04200 | 35022 ft | 571 kts | 77° |
| 2026-05-05 10:37 | 44.18301 | -57.93461 | 35017 ft | 568 kts | 77° |
| 2026-05-05 10:38 | 44.20143 | -57.82797 | 35011 ft | 565 kts | 77° |
| 2026-05-05 10:38 | 44.21961 | -57.72205 | 35007 ft | 567 kts | 77° |
| 2026-05-05 10:39 | 44.23790 | -57.61484 | 35002 ft | 568 kts | 77° |
| 2026-05-05 10:39 | 44.25613 | -57.50730 | 34997 ft | 569 kts | 78° |
| 2026-05-05 10:40 | 44.27430 | -57.39948 | 34993 ft | 571 kts | 78° |
| 2026-05-05 10:40 | 44.29231 | -57.29194 | 34988 ft | 572 kts | 78° |
| 2026-05-05 10:41 | 44.31035 | -57.18353 | 34984 ft | 574 kts | 78° |
| 2026-05-05 10:41 | 44.32834 | -57.07477 | 34980 ft | 576 kts | 78° |
| 2026-05-05 10:42 | 44.35524 | -56.91080 | 34974 ft | 577 kts | 79° |
| 2026-05-05 10:43 | 44.37306 | -56.80132 | 34971 ft | 579 kts | 79° |
| 2026-05-05 10:43 | 44.39100 | -56.69038 | 34968 ft | 581 kts | 79° |
| 2026-05-05 10:44 | 44.40863 | -56.58061 | 34965 ft | 582 kts | 79° |
| 2026-05-05 10:44 | 44.42657 | -56.46998 | 34972 ft | 583 kts | 79° |
| 2026-05-05 10:45 | 44.44432 | -56.35899 | 34970 ft | 584 kts | 80° |
| 2026-05-05 10:45 | 44.46163 | -56.24777 | 34968 ft | 585 kts | 80° |
| 2026-05-05 10:46 | 44.47878 | -56.13700 | 34951 ft | 586 kts | 80° |
| 2026-05-05 10:46 | 44.49516 | -56.02441 | 34892 ft | 585 kts | 83° |
| 2026-05-05 10:47 | 44.50697 | -55.91283 | 34885 ft | 579 kts | 84° |
| 2026-05-05 10:47 | 44.51841 | -55.80184 | 34876 ft | 573 kts | 84° |
| 2026-05-05 10:48 | 44.53003 | -55.69077 | 34872 ft | 576 kts | 84° |
| 2026-05-05 10:48 | 44.54173 | -55.57949 | 34867 ft | 578 kts | 84° |
| 2026-05-05 10:49 | 44.55429 | -55.46806 | 34862 ft | 579 kts | 84° |
| 2026-05-05 10:49 | 44.56635 | -55.35614 | 34857 ft | 580 kts | 84° |
| 2026-05-05 10:50 | 44.57808 | -55.24476 | 34851 ft | 582 kts | 84° |
| 2026-05-05 10:50 | 44.58976 | -55.13228 | 34846 ft | 583 kts | 84° |
| 2026-05-05 10:51 | 44.60136 | -55.01925 | 34841 ft | 584 kts | 85° |
| 2026-05-05 10:51 | 44.61283 | -54.90642 | 34835 ft | 585 kts | 85° |
| 2026-05-05 10:52 | 44.62422 | -54.79320 | 34830 ft | 586 kts | 85° |
| 2026-05-05 10:52 | 44.63553 | -54.67951 | 34825 ft | 588 kts | 85° |
| 2026-05-05 10:53 | 44.64665 | -54.56667 | 34819 ft | 589 kts | 86° |
| 2026-05-05 10:53 | 44.65779 | -54.45237 | 34813 ft | 589 kts | 86° |
| 2026-05-05 10:54 | 44.66885 | -54.33771 | 34808 ft | 590 kts | 86° |
| 2026-05-05 10:54 | 44.67966 | -54.22437 | 34803 ft | 591 kts | 86° |
| 2026-05-05 10:55 | 44.69052 | -54.10933 | 34796 ft | 592 kts | 86° |
| 2026-05-05 10:55 | 44.70125 | -53.99435 | 34791 ft | 592 kts | 86° |
| 2026-05-05 10:56 | 44.71179 | -53.88017 | 34785 ft | 585 kts | 86° |
| 2026-05-05 10:56 | 44.72209 | -53.76734 | 34780 ft | 586 kts | 86° |
| 2026-05-05 10:57 | 44.73235 | -53.65368 | 34775 ft | 588 kts | 86° |
| 2026-05-05 10:57 | 44.74257 | -53.53923 | 34768 ft | 589 kts | 86° |
| 2026-05-05 10:58 | 44.75270 | -53.42434 | 34764 ft | 590 kts | 86° |
| 2026-05-05 10:58 | 44.76271 | -53.30948 | 34759 ft | 592 kts | 86° |
| 2026-05-05 10:59 | 44.77258 | -53.19497 | 34754 ft | 594 kts | 86° |
| 2026-05-05 10:59 | 44.78243 | -53.07925 | 34749 ft | 595 kts | 87° |
| 2026-05-05 11:00 | 44.79216 | -52.96346 | 34744 ft | 596 kts | 87° |
| 2026-05-05 11:00 | 44.80176 | -52.84785 | 34719 ft | 598 kts | 87° |
| 2026-05-05 11:01 | 44.81132 | -52.73128 | 34715 ft | 600 kts | 88° |
| 2026-05-05 11:01 | 44.82079 | -52.61440 | 34654 ft | 601 kts | 88° |
| 2026-05-05 11:02 | 44.83015 | -52.49727 | 34636 ft | 602 kts | 88° |
| 2026-05-05 11:02 | 44.83938 | -52.38029 | 34634 ft | 603 kts | 88° |
| 2026-05-05 11:03 | 44.84855 | -52.26241 | 34632 ft | 604 kts | 88° |
| 2026-05-05 11:03 | 44.85806 | -52.14491 | 34629 ft | 605 kts | 88° |
| 2026-05-05 11:04 | 44.86683 | -52.02686 | 34628 ft | 604 kts | 89° |
| 2026-05-05 11:04 | 44.87396 | -51.92910 | 34628 ft | 600 kts | 88° |
| 2026-05-05 11:05 | 44.88386 | -51.79324 | 34644 ft | 592 kts | 88° |
| 2026-05-05 11:05 | 44.89199 | -51.67834 | 34745 ft | 594 kts | 89° |
| 2026-05-05 11:06 | 44.90001 | -51.56213 | 34880 ft | 594 kts | 89° |
| 2026-05-05 11:06 | 44.90788 | -51.44601 | 34894 ft | 595 kts | 89° |
| 2026-05-05 11:07 | 44.91491 | -51.34072 | 34894 ft | 596 kts | 89° |
| 2026-05-05 11:07 | 44.92334 | -51.22486 | 34894 ft | 597 kts | 88° |
| 2026-05-05 11:08 | 44.93147 | -51.10803 | 34895 ft | 598 kts | 89° |
| 2026-05-05 11:08 | 44.93928 | -50.99094 | 34894 ft | 599 kts | 89° |
| 2026-05-05 11:09 | 44.94690 | -50.87405 | 34895 ft | 600 kts | 89° |
| 2026-05-05 11:09 | 44.95443 | -50.75651 | 34895 ft | 601 kts | 89° |
| 2026-05-05 11:10 | 44.96185 | -50.63889 | 34895 ft | 602 kts | 90° |
| 2026-05-05 11:10 | 44.96916 | -50.52092 | 34897 ft | 603 kts | 90° |
| 2026-05-05 11:11 | 44.97664 | -50.40352 | 34897 ft | 603 kts | 89° |
| 2026-05-05 11:11 | 44.98381 | -50.28554 | 34897 ft | 603 kts | 90° |
| 2026-05-05 11:12 | 44.99045 | -50.16909 | 34899 ft | 603 kts | 90° |
| 2026-05-05 11:12 | 44.99726 | -50.04905 | 34898 ft | 603 kts | 89° |
| 2026-05-05 11:13 | 45.01589 | -49.93332 | 34914 ft | 603 kts | 75° |
| 2026-05-05 11:13 | 45.04328 | -49.82217 | 34901 ft | 598 kts | 71° |
| 2026-05-05 11:14 | 45.07135 | -49.71131 | 34901 ft | 601 kts | 72° |
| 2026-05-05 11:14 | 45.09896 | -49.59963 | 34901 ft | 601 kts | 72° |
| 2026-05-05 11:15 | 45.12673 | -49.48795 | 34918 ft | 602 kts | 71° |
| 2026-05-05 11:15 | 45.15487 | -49.37605 | 34919 ft | 603 kts | 72° |
| 2026-05-05 11:16 | 45.18255 | -49.26373 | 34920 ft | 604 kts | 72° |
| 2026-05-05 11:16 | 45.21007 | -49.15093 | 34921 ft | 605 kts | 72° |
| 2026-05-05 11:17 | 45.23745 | -49.03803 | 34922 ft | 606 kts | 73° |
| 2026-05-05 11:17 | 45.26482 | -48.92448 | 34922 ft | 607 kts | 73° |
| 2026-05-05 11:18 | 45.29201 | -48.81112 | 34924 ft | 608 kts | 73° |
| 2026-05-05 11:18 | 45.31900 | -48.69801 | 34925 ft | 609 kts | 73° |
| 2026-05-05 11:19 | 45.34617 | -48.58359 | 34926 ft | 609 kts | 73° |
| 2026-05-05 11:19 | 45.37323 | -48.46901 | 34927 ft | 609 kts | 73° |
| 2026-05-05 11:20 | 45.39996 | -48.35525 | 34928 ft | 609 kts | 73° |
| 2026-05-05 11:20 | 45.42668 | -48.24090 | 34929 ft | 609 kts | 73° |
| 2026-05-05 11:21 | 45.45331 | -48.12638 | 34931 ft | 608 kts | 73° |
| 2026-05-05 11:21 | 45.47975 | -48.01210 | 34932 ft | 607 kts | 74° |
| 2026-05-05 11:22 | 45.50608 | -47.89764 | 34933 ft | 606 kts | 74° |
| 2026-05-05 11:22 | 45.53209 | -47.78400 | 34935 ft | 606 kts | 74° |
| 2026-05-05 11:23 | 45.55816 | -47.66947 | 34937 ft | 607 kts | 74° |
| 2026-05-05 11:23 | 45.58412 | -47.55485 | 34939 ft | 607 kts | 74° |
| 2026-05-05 11:24 | 45.61003 | -47.43982 | 34940 ft | 608 kts | 74° |
| 2026-05-05 11:24 | 45.63567 | -47.32538 | 34942 ft | 609 kts | 74° |
| 2026-05-05 11:25 | 45.66133 | -47.21023 | 34943 ft | 609 kts | 74° |
| 2026-05-05 11:25 | 45.68698 | -47.09449 | 34945 ft | 610 kts | 75° |
| 2026-05-05 11:26 | 45.71256 | -46.97846 | 34948 ft | 611 kts | 75° |
| 2026-05-05 11:26 | 45.73800 | -46.86241 | 34949 ft | 612 kts | 75° |
| 2026-05-05 11:27 | 45.76339 | -46.74590 | 34951 ft | 613 kts | 75° |
| 2026-05-05 11:27 | 45.78864 | -46.62945 | 34953 ft | 615 kts | 75° |
| 2026-05-05 11:28 | 45.81385 | -46.51247 | 34955 ft | 615 kts | 75° |
| 2026-05-05 11:28 | 45.83903 | -46.39503 | 34957 ft | 615 kts | 75° |
| 2026-05-05 11:29 | 45.86408 | -46.27746 | 34959 ft | 616 kts | 75° |
| 2026-05-05 11:29 | 45.88901 | -46.15981 | 34962 ft | 617 kts | 75° |
| 2026-05-05 11:30 | 45.90965 | -46.06192 | 34963 ft | 617 kts | 75° |
| 2026-05-05 11:30 | 45.93865 | -45.92354 | 34966 ft | 617 kts | 75° |
| 2026-05-05 11:31 | 45.96321 | -45.80558 | 34968 ft | 616 kts | 76° |
| 2026-05-05 11:31 | 45.98751 | -45.68823 | 34971 ft | 617 kts | 76° |
| 2026-05-05 11:32 | 46.01190 | -45.56977 | 34978 ft | 614 kts | 75° |
| 2026-05-05 11:32 | 46.03577 | -45.45309 | 34975 ft | 603 kts | 75° |
| 2026-05-05 11:33 | 46.05536 | -45.35686 | 34995 ft | 604 kts | 76° |
| 2026-05-05 11:33 | 46.08295 | -45.22054 | 35003 ft | 608 kts | 76° |
| 2026-05-05 11:34 | 46.10639 | -45.10397 | 35006 ft | 609 kts | 76° |
| 2026-05-05 11:34 | 46.12982 | -44.98673 | 35008 ft | 610 kts | 76° |
| 2026-05-05 11:35 | 46.15327 | -44.86871 | 35012 ft | 613 kts | 76° |
| 2026-05-05 11:35 | 46.17668 | -44.75016 | 35015 ft | 614 kts | 76° |
| 2026-05-05 11:36 | 46.19999 | -44.63139 | 35019 ft | 616 kts | 76° |
| 2026-05-05 11:36 | 46.22330 | -44.51188 | 35021 ft | 618 kts | 76° |
| 2026-05-05 11:37 | 46.23489 | -44.45220 | 35023 ft | 618 kts | 76° |